Leba, Poland
Current Conditions -  °F | °C
As of 11:30 AM on Thursday 18 Dec 2014 (Local Time) from EPGD Reporting Station
Drizzle Drizzle  
Wind Chill: 33°   Ceiling: 400
Heat Index: 37°   Visibility: 1.2mi
Dew Point: 37°   Wind: 6mph
Humidity: 100%   Direction: 220°SW
Pressure: 29.68"   Gusts: NA
Location:  54.75°N, 17.53°E
Report Text: EPGD 180930Z 22005KT 190V250 2000 -DZ BR SCT003 BKN004 03/03 Q1005
Loading
Personal Weather Stations






























Interactive Weather Map New forecast layout! Learn more

10-Day Weather Forecast

Advertisements
Track Severe Weather on mobile